sensor_id;sensor_type;location;lat;lon;timestamp;P1;durP1;ratioP1;P2;durP2;ratioP2
16667;SDS011;8447;52.630;4.734;2022-10-17T00:02:22;6.03;;;1.87;;
16667;SDS011;8447;52.630;4.734;2022-10-17T00:04:49;4.17;;;1.73;;
16667;SDS011;8447;52.630;4.734;2022-10-17T00:07:15;6.87;;;1.93;;
16667;SDS011;8447;52.630;4.734;2022-10-17T00:09:42;4.50;;;2.30;;
16667;SDS011;8447;52.630;4.734;2022-10-17T00:12:09;4.73;;;2.23;;
16667;SDS011;8447;52.630;4.734;2022-10-17T00:14:36;7.83;;;2.77;;
16667;SDS011;8447;52.630;4.734;2022-10-17T00:17:03;6.77;;;2.33;;
16667;SDS011;8447;52.630;4.734;2022-10-17T00:19:29;3.63;;;2.10;;
16667;SDS011;8447;52.630;4.734;2022-10-17T00:21:56;9.73;;;2.63;;
16667;SDS011;8447;52.630;4.734;2022-10-17T00:24:22;4.53;;;1.80;;
16667;SDS011;8447;52.630;4.734;2022-10-17T00:26:48;4.70;;;2.70;;
16667;SDS011;8447;52.630;4.734;2022-10-17T00:29:16;2.30;;;2.00;;
16667;SDS011;8447;52.630;4.734;2022-10-17T00:31:42;5.23;;;2.20;;
16667;SDS011;8447;52.630;4.734;2022-10-17T00:34:09;5.13;;;2.40;;
16667;SDS011;8447;52.630;4.734;2022-10-17T00:36:35;5.10;;;2.30;;
16667;SDS011;8447;52.630;4.734;2022-10-17T00:39:01;6.33;;;2.43;;
16667;SDS011;8447;52.630;4.734;2022-10-17T00:41:29;7.57;;;2.43;;
16667;SDS011;8447;52.630;4.734;2022-10-17T00:43:56;6.40;;;2.83;;
16667;SDS011;8447;52.630;4.734;2022-10-17T00:46:25;4.83;;;2.10;;
16667;SDS011;8447;52.630;4.734;2022-10-17T00:48:53;6.90;;;2.17;;
16667;SDS011;8447;52.630;4.734;2022-10-17T00:51:22;5.63;;;2.03;;
16667;SDS011;8447;52.630;4.734;2022-10-17T00:53:49;4.57;;;2.30;;
16667;SDS011;8447;52.630;4.734;2022-10-17T00:56:16;5.63;;;2.13;;
16667;SDS011;8447;52.630;4.734;2022-10-17T00:58:43;5.80;;;2.40;;
16667;SDS011;8447;52.630;4.734;2022-10-17T01:01:10;4.33;;;2.60;;
16667;SDS011;8447;52.630;4.734;2022-10-17T01:03:37;8.03;;;2.20;;
16667;SDS011;8447;52.630;4.734;2022-10-17T01:06:04;5.80;;;2.90;;
16667;SDS011;8447;52.630;4.734;2022-10-17T01:08:30;6.83;;;2.40;;
16667;SDS011;8447;52.630;4.734;2022-10-17T01:10:58;5.13;;;2.17;;
16667;SDS011;8447;52.630;4.734;2022-10-17T01:13:27;10.07;;;2.90;;
16667;SDS011;8447;52.630;4.734;2022-10-17T01:15:57;4.07;;;2.77;;
16667;SDS011;8447;52.630;4.734;2022-10-17T01:18:28;4.50;;;2.27;;
16667;SDS011;8447;52.630;4.734;2022-10-17T01:21:11;5.87;;;2.53;;
16667;SDS011;8447;52.630;4.734;2022-10-17T01:26:31;8.33;;;3.10;;
16667;SDS011;8447;52.630;4.734;2022-10-17T01:29:15;3.63;;;2.43;;
16667;SDS011;8447;52.630;4.734;2022-10-17T01:31:47;6.57;;;3.10;;
16667;SDS011;8447;52.630;4.734;2022-10-17T01:34:19;4.93;;;2.67;;
16667;SDS011;8447;52.630;4.734;2022-10-17T01:36:47;6.57;;;2.90;;
16667;SDS011;8447;52.630;4.734;2022-10-17T01:39:16;4.13;;;2.40;;
16667;SDS011;8447;52.630;4.734;2022-10-17T01:41:46;8.23;;;3.27;;
16667;SDS011;8447;52.630;4.734;2022-10-17T01:44:17;3.73;;;2.40;;
16667;SDS011;8447;52.630;4.734;2022-10-17T01:46:47;4.13;;;2.67;;
16667;SDS011;8447;52.630;4.734;2022-10-17T01:49:14;5.83;;;3.23;;
16667;SDS011;8447;52.630;4.734;2022-10-17T01:51:43;6.60;;;2.80;;
16667;SDS011;8447;52.630;4.734;2022-10-17T01:54:10;5.43;;;3.00;;
16667;SDS011;8447;52.630;4.734;2022-10-17T01:56:39;4.93;;;3.20;;
16667;SDS011;8447;52.630;4.734;2022-10-17T01:59:08;6.37;;;2.87;;
16667;SDS011;8447;52.630;4.734;2022-10-17T02:01:36;4.40;;;3.27;;
16667;SDS011;8447;52.630;4.734;2022-10-17T02:04:04;3.90;;;2.80;;
16667;SDS011;8447;52.630;4.734;2022-10-17T02:06:33;5.87;;;3.30;;
16667;SDS011;8447;52.630;4.734;2022-10-17T02:08:59;4.23;;;2.53;;
16667;SDS011;8447;52.630;4.734;2022-10-17T02:11:26;8.10;;;3.10;;
16667;SDS011;8447;52.630;4.734;2022-10-17T02:14:00;6.20;;;3.27;;
16667;SDS011;8447;52.630;4.734;2022-10-17T02:16:33;7.47;;;3.27;;
16667;SDS011;8447;52.630;4.734;2022-10-17T02:19:13;4.23;;;2.87;;
16667;SDS011;8447;52.630;4.734;2022-10-17T02:21:47;6.70;;;3.53;;
16667;SDS011;8447;52.630;4.734;2022-10-17T02:24:17;4.47;;;3.27;;
16667;SDS011;8447;52.630;4.734;2022-10-17T02:26:46;3.70;;;3.03;;
16667;SDS011;8447;52.630;4.734;2022-10-17T02:29:16;4.33;;;2.93;;
16667;SDS011;8447;52.630;4.734;2022-10-17T02:31:44;4.67;;;2.77;;
16667;SDS011;8447;52.630;4.734;2022-10-17T02:34:13;9.93;;;3.77;;
16667;SDS011;8447;52.630;4.734;2022-10-17T02:36:44;4.47;;;3.67;;
16667;SDS011;8447;52.630;4.734;2022-10-17T02:39:11;8.13;;;3.60;;
16667;SDS011;8447;52.630;4.734;2022-10-17T02:41:38;4.63;;;3.20;;
16667;SDS011;8447;52.630;4.734;2022-10-17T02:44:05;4.10;;;3.70;;
16667;SDS011;8447;52.630;4.734;2022-10-17T02:46:32;3.70;;;2.90;;
16667;SDS011;8447;52.630;4.734;2022-10-17T02:49:00;4.00;;;3.60;;
16667;SDS011;8447;52.630;4.734;2022-10-17T02:51:35;6.27;;;4.20;;
16667;SDS011;8447;52.630;4.734;2022-10-17T02:54:04;5.47;;;4.20;;
16667;SDS011;8447;52.630;4.734;2022-10-17T02:56:35;5.77;;;3.30;;
16667;SDS011;8447;52.630;4.734;2022-10-17T02:59:03;4.83;;;3.93;;
16667;SDS011;8447;52.630;4.734;2022-10-17T03:01:30;3.53;;;3.27;;
16667;SDS011;8447;52.630;4.734;2022-10-17T03:04:06;6.13;;;3.50;;
16667;SDS011;8447;52.630;4.734;2022-10-17T03:06:34;6.33;;;4.40;;
16667;SDS011;8447;52.630;4.734;2022-10-17T03:09:00;6.17;;;4.13;;
16667;SDS011;8447;52.630;4.734;2022-10-17T03:11:27;5.57;;;4.27;;
16667;SDS011;8447;52.630;4.734;2022-10-17T03:13:53;5.40;;;4.03;;
16667;SDS011;8447;52.630;4.734;2022-10-17T03:16:19;5.70;;;4.80;;
16667;SDS011;8447;52.630;4.734;2022-10-17T03:18:46;6.23;;;4.67;;
16667;SDS011;8447;52.630;4.734;2022-10-17T03:21:12;4.90;;;3.57;;
16667;SDS011;8447;52.630;4.734;2022-10-17T03:23:40;6.27;;;4.33;;
16667;SDS011;8447;52.630;4.734;2022-10-17T03:26:06;5.73;;;4.37;;
16667;SDS011;8447;52.630;4.734;2022-10-17T03:28:33;4.50;;;4.10;;
16667;SDS011;8447;52.630;4.734;2022-10-17T03:31:04;5.43;;;3.87;;
16667;SDS011;8447;52.630;4.734;2022-10-17T03:33:31;4.80;;;4.07;;
16667;SDS011;8447;52.630;4.734;2022-10-17T03:35:57;3.40;;;3.03;;
16667;SDS011;8447;52.630;4.734;2022-10-17T03:38:24;5.43;;;4.30;;
16667;SDS011;8447;52.630;4.734;2022-10-17T03:40:54;4.97;;;3.53;;
16667;SDS011;8447;52.630;4.734;2022-10-17T03:43:21;7.40;;;3.67;;
16667;SDS011;8447;52.630;4.734;2022-10-17T03:45:47;10.43;;;4.83;;
16667;SDS011;8447;52.630;4.734;2022-10-17T03:48:14;5.10;;;4.53;;
16667;SDS011;8447;52.630;4.734;2022-10-17T03:50:40;4.63;;;4.00;;
16667;SDS011;8447;52.630;4.734;2022-10-17T03:53:06;4.97;;;4.10;;
16667;SDS011;8447;52.630;4.734;2022-10-17T03:55:33;4.27;;;3.53;;
16667;SDS011;8447;52.630;4.734;2022-10-17T03:58:00;5.07;;;3.93;;
16667;SDS011;8447;52.630;4.734;2022-10-17T04:00:27;4.47;;;3.80;;
16667;SDS011;8447;52.630;4.734;2022-10-17T04:02:53;7.17;;;4.23;;
16667;SDS011;8447;52.630;4.734;2022-10-17T04:05:19;6.40;;;3.83;;
16667;SDS011;8447;52.630;4.734;2022-10-17T04:07:46;5.40;;;4.23;;
16667;SDS011;8447;52.630;4.734;2022-10-17T04:10:12;7.63;;;4.00;;
16667;SDS011;8447;52.630;4.734;2022-10-17T04:12:38;6.97;;;4.17;;
16667;SDS011;8447;52.630;4.734;2022-10-17T04:15:07;5.77;;;4.57;;
16667;SDS011;8447;52.630;4.734;2022-10-17T04:17:33;6.80;;;5.07;;
16667;SDS011;8447;52.630;4.734;2022-10-17T04:20:00;4.20;;;3.73;;
16667;SDS011;8447;52.630;4.734;2022-10-17T04:22:26;5.73;;;4.03;;
16667;SDS011;8447;52.630;4.734;2022-10-17T04:24:52;7.07;;;4.50;;
16667;SDS011;8447;52.630;4.734;2022-10-17T04:27:19;5.70;;;4.80;;
16667;SDS011;8447;52.630;4.734;2022-10-17T04:29:45;6.83;;;3.83;;
16667;SDS011;8447;52.630;4.734;2022-10-17T04:32:13;6.00;;;4.03;;
16667;SDS011;8447;52.630;4.734;2022-10-17T04:34:39;8.47;;;3.90;;
16667;SDS011;8447;52.630;4.734;2022-10-17T04:37:05;5.57;;;4.50;;
16667;SDS011;8447;52.630;4.734;2022-10-17T04:39:32;5.87;;;4.33;;
16667;SDS011;8447;52.630;4.734;2022-10-17T04:41:58;4.20;;;3.53;;
16667;SDS011;8447;52.630;4.734;2022-10-17T04:44:24;5.13;;;3.77;;
16667;SDS011;8447;52.630;4.734;2022-10-17T04:46:54;5.20;;;4.70;;
16667;SDS011;8447;52.630;4.734;2022-10-17T04:49:22;6.73;;;5.03;;
16667;SDS011;8447;52.630;4.734;2022-10-17T04:51:48;5.43;;;4.93;;
16667;SDS011;8447;52.630;4.734;2022-10-17T04:54:15;7.33;;;5.10;;
16667;SDS011;8447;52.630;4.734;2022-10-17T04:56:41;9.43;;;5.13;;
16667;SDS011;8447;52.630;4.734;2022-10-17T04:59:07;5.07;;;4.50;;
16667;SDS011;8447;52.630;4.734;2022-10-17T05:01:34;6.00;;;3.83;;
16667;SDS011;8447;52.630;4.734;2022-10-17T05:04:00;6.83;;;4.87;;
16667;SDS011;8447;52.630;4.734;2022-10-17T05:06:28;7.00;;;4.60;;
16667;SDS011;8447;52.630;4.734;2022-10-17T05:08:56;9.70;;;5.27;;
16667;SDS011;8447;52.630;4.734;2022-10-17T05:11:23;5.43;;;3.80;;
16667;SDS011;8447;52.630;4.734;2022-10-17T05:13:50;6.17;;;4.53;;
16667;SDS011;8447;52.630;4.734;2022-10-17T05:16:16;5.30;;;4.13;;
16667;SDS011;8447;52.630;4.734;2022-10-17T05:18:43;7.50;;;5.00;;
16667;SDS011;8447;52.630;4.734;2022-10-17T05:21:09;8.70;;;4.80;;
16667;SDS011;8447;52.630;4.734;2022-10-17T05:23:37;5.77;;;4.30;;
16667;SDS011;8447;52.630;4.734;2022-10-17T05:26:03;6.23;;;4.53;;
16667;SDS011;8447;52.630;4.734;2022-10-17T05:28:30;5.17;;;3.30;;
16667;SDS011;8447;52.630;4.734;2022-10-17T05:30:56;5.57;;;3.77;;
16667;SDS011;8447;52.630;4.734;2022-10-17T05:33:22;6.50;;;4.30;;
16667;SDS011;8447;52.630;4.734;2022-10-17T05:35:49;5.83;;;3.90;;
16667;SDS011;8447;52.630;4.734;2022-10-17T05:38:15;6.53;;;4.67;;
16667;SDS011;8447;52.630;4.734;2022-10-17T05:40:43;4.33;;;3.80;;
16667;SDS011;8447;52.630;4.734;2022-10-17T05:43:09;8.50;;;4.70;;
16667;SDS011;8447;52.630;4.734;2022-10-17T05:45:36;7.00;;;4.20;;
16667;SDS011;8447;52.630;4.734;2022-10-17T05:48:02;8.40;;;4.77;;
16667;SDS011;8447;52.630;4.734;2022-10-17T05:50:29;9.13;;;4.30;;
16667;SDS011;8447;52.630;4.734;2022-10-17T05:52:55;4.10;;;3.50;;
16667;SDS011;8447;52.630;4.734;2022-10-17T05:55:22;7.73;;;4.13;;
16667;SDS011;8447;52.630;4.734;2022-10-17T05:57:49;7.73;;;4.47;;
16667;SDS011;8447;52.630;4.734;2022-10-17T06:00:16;5.43;;;4.60;;
16667;SDS011;8447;52.630;4.734;2022-10-17T06:02:43;7.07;;;4.83;;
16667;SDS011;8447;52.630;4.734;2022-10-17T06:05:10;5.27;;;3.97;;
16667;SDS011;8447;52.630;4.734;2022-10-17T06:07:37;5.10;;;4.60;;
16667;SDS011;8447;52.630;4.734;2022-10-17T06:10:03;6.30;;;4.37;;
16667;SDS011;8447;52.630;4.734;2022-10-17T06:12:30;7.70;;;4.37;;
16667;SDS011;8447;52.630;4.734;2022-10-17T06:14:58;8.30;;;4.30;;
16667;SDS011;8447;52.630;4.734;2022-10-17T06:17:24;4.53;;;4.13;;
16667;SDS011;8447;52.630;4.734;2022-10-17T06:19:50;4.90;;;3.90;;
16667;SDS011;8447;52.630;4.734;2022-10-17T06:22:17;5.83;;;3.87;;
16667;SDS011;8447;52.630;4.734;2022-10-17T06:24:43;5.77;;;3.43;;
16667;SDS011;8447;52.630;4.734;2022-10-17T06:27:09;4.73;;;3.80;;
16667;SDS011;8447;52.630;4.734;2022-10-17T06:29:36;6.07;;;3.70;;
16667;SDS011;8447;52.630;4.734;2022-10-17T06:32:03;5.93;;;3.50;;
16667;SDS011;8447;52.630;4.734;2022-10-17T06:34:30;8.60;;;4.70;;
16667;SDS011;8447;52.630;4.734;2022-10-17T06:36:56;8.67;;;3.37;;
16667;SDS011;8447;52.630;4.734;2022-10-17T06:39:22;3.63;;;3.30;;
16667;SDS011;8447;52.630;4.734;2022-10-17T06:41:51;7.67;;;3.33;;
16667;SDS011;8447;52.630;4.734;2022-10-17T06:44:17;5.60;;;3.13;;
16667;SDS011;8447;52.630;4.734;2022-10-17T06:46:43;4.30;;;3.40;;
16667;SDS011;8447;52.630;4.734;2022-10-17T06:49:11;5.07;;;3.23;;
16667;SDS011;8447;52.630;4.734;2022-10-17T06:51:37;5.40;;;3.40;;
16667;SDS011;8447;52.630;4.734;2022-10-17T06:54:04;5.27;;;3.70;;
16667;SDS011;8447;52.630;4.734;2022-10-17T06:56:30;6.63;;;4.10;;
16667;SDS011;8447;52.630;4.734;2022-10-17T06:58:56;6.40;;;3.67;;
16667;SDS011;8447;52.630;4.734;2022-10-17T07:01:23;7.73;;;3.40;;
16667;SDS011;8447;52.630;4.734;2022-10-17T07:03:49;6.10;;;4.10;;
16667;SDS011;8447;52.630;4.734;2022-10-17T07:06:17;7.37;;;4.17;;
16667;SDS011;8447;52.630;4.734;2022-10-17T07:08:44;6.63;;;4.70;;
16667;SDS011;8447;52.630;4.734;2022-10-17T07:11:11;5.37;;;4.20;;
16667;SDS011;8447;52.630;4.734;2022-10-17T07:13:38;7.43;;;3.70;;
16667;SDS011;8447;52.630;4.734;2022-10-17T07:16:05;6.03;;;4.07;;
16667;SDS011;8447;52.630;4.734;2022-10-17T07:18:31;5.97;;;3.97;;
16667;SDS011;8447;52.630;4.734;2022-10-17T07:20:58;7.73;;;3.60;;
16667;SDS011;8447;52.630;4.734;2022-10-17T07:23:26;6.50;;;3.30;;
16667;SDS011;8447;52.630;4.734;2022-10-17T07:25:57;6.53;;;4.27;;
16667;SDS011;8447;52.630;4.734;2022-10-17T07:28:24;6.33;;;4.20;;
16667;SDS011;8447;52.630;4.734;2022-10-17T07:30:50;7.70;;;4.17;;
16667;SDS011;8447;52.630;4.734;2022-10-17T07:33:16;7.83;;;4.20;;
16667;SDS011;8447;52.630;4.734;2022-10-17T07:35:43;7.97;;;4.33;;
16667;SDS011;8447;52.630;4.734;2022-10-17T07:38:09;7.70;;;4.40;;
16667;SDS011;8447;52.630;4.734;2022-10-17T07:40:37;6.47;;;4.57;;
16667;SDS011;8447;52.630;4.734;2022-10-17T07:43:03;8.17;;;4.37;;
16667;SDS011;8447;52.630;4.734;2022-10-17T07:45:30;7.50;;;4.10;;
16667;SDS011;8447;52.630;4.734;2022-10-17T07:47:56;7.13;;;4.67;;
16667;SDS011;8447;52.630;4.734;2022-10-17T07:50:23;9.27;;;3.80;;
16667;SDS011;8447;52.630;4.734;2022-10-17T07:52:49;11.10;;;7.40;;
16667;SDS011;8447;52.630;4.734;2022-10-17T07:55:15;9.17;;;4.90;;
16667;SDS011;8447;52.630;4.734;2022-10-17T07:57:43;6.17;;;4.10;;
16667;SDS011;8447;52.630;4.734;2022-10-17T08:00:10;6.50;;;4.47;;
16667;SDS011;8447;52.630;4.734;2022-10-17T08:02:36;5.57;;;4.43;;
16667;SDS011;8447;52.630;4.734;2022-10-17T08:05:03;7.33;;;4.63;;
16667;SDS011;8447;52.630;4.734;2022-10-17T08:07:30;5.30;;;4.40;;
16667;SDS011;8447;52.630;4.734;2022-10-17T08:09:56;6.87;;;4.30;;
16667;SDS011;8447;52.630;4.734;2022-10-17T08:12:22;6.80;;;5.00;;
16667;SDS011;8447;52.630;4.734;2022-10-17T08:14:51;12.53;;;4.47;;
16667;SDS011;8447;52.630;4.734;2022-10-17T08:17:17;8.23;;;4.27;;
16667;SDS011;8447;52.630;4.734;2022-10-17T08:19:43;4.93;;;3.77;;
16667;SDS011;8447;52.630;4.734;2022-10-17T08:22:10;4.90;;;3.50;;
16667;SDS011;8447;52.630;4.734;2022-10-17T08:24:36;7.10;;;3.70;;
16667;SDS011;8447;52.630;4.734;2022-10-17T08:27:02;6.60;;;4.07;;
16667;SDS011;8447;52.630;4.734;2022-10-17T08:29:35;4.13;;;3.37;;
16667;SDS011;8447;52.630;4.734;2022-10-17T08:32:03;6.53;;;4.07;;
16667;SDS011;8447;52.630;4.734;2022-10-17T08:34:29;5.90;;;4.20;;
16667;SDS011;8447;52.630;4.734;2022-10-17T08:36:55;7.27;;;3.67;;
16667;SDS011;8447;52.630;4.734;2022-10-17T08:39:22;3.93;;;3.17;;
16667;SDS011;8447;52.630;4.734;2022-10-17T08:41:51;7.20;;;3.20;;
16667;SDS011;8447;52.630;4.734;2022-10-17T08:44:21;4.40;;;3.50;;
16667;SDS011;8447;52.630;4.734;2022-10-17T08:46:51;7.20;;;2.83;;
16667;SDS011;8447;52.630;4.734;2022-10-17T08:49:22;5.13;;;3.20;;
16667;SDS011;8447;52.630;4.734;2022-10-17T08:51:51;8.40;;;3.70;;
16667;SDS011;8447;52.630;4.734;2022-10-17T08:54:20;6.90;;;3.30;;
16667;SDS011;8447;52.630;4.734;2022-10-17T08:56:48;4.87;;;3.70;;
16667;SDS011;8447;52.630;4.734;2022-10-17T08:59:16;7.40;;;3.60;;
16667;SDS011;8447;52.630;4.734;2022-10-17T09:01:44;6.70;;;3.40;;
16667;SDS011;8447;52.630;4.734;2022-10-17T09:04:23;6.10;;;3.57;;
16667;SDS011;8447;52.630;4.734;2022-10-17T09:06:59;6.23;;;3.77;;
16667;SDS011;8447;52.630;4.734;2022-10-17T09:09:30;6.13;;;3.60;;
16667;SDS011;8447;52.630;4.734;2022-10-17T09:12:04;4.93;;;3.47;;
16667;SDS011;8447;52.630;4.734;2022-10-17T09:17:25;7.83;;;3.40;;
16667;SDS011;8447;52.630;4.734;2022-10-17T09:19:56;7.57;;;3.43;;
16667;SDS011;8447;52.630;4.734;2022-10-17T09:22:26;6.87;;;3.97;;
16667;SDS011;8447;52.630;4.734;2022-10-17T09:24:54;7.83;;;3.27;;
16667;SDS011;8447;52.630;4.734;2022-10-17T09:27:22;6.87;;;2.93;;
16667;SDS011;8447;52.630;4.734;2022-10-17T09:29:49;6.73;;;3.13;;
16667;SDS011;8447;52.630;4.734;2022-10-17T09:32:17;6.70;;;3.37;;
16667;SDS011;8447;52.630;4.734;2022-10-17T09:34:44;6.00;;;3.87;;
16667;SDS011;8447;52.630;4.734;2022-10-17T09:37:13;11.50;;;3.77;;
16667;SDS011;8447;52.630;4.734;2022-10-17T09:39:40;7.07;;;3.00;;
16667;SDS011;8447;52.630;4.734;2022-10-17T09:42:08;8.13;;;3.30;;
16667;SDS011;8447;52.630;4.734;2022-10-17T09:44:38;6.60;;;3.37;;
16667;SDS011;8447;52.630;4.734;2022-10-17T09:47:09;6.93;;;2.73;;
16667;SDS011;8447;52.630;4.734;2022-10-17T09:49:38;8.70;;;3.03;;
16667;SDS011;8447;52.630;4.734;2022-10-17T09:52:05;8.40;;;3.60;;
16667;SDS011;8447;52.630;4.734;2022-10-17T09:54:40;3.83;;;2.40;;
16667;SDS011;8447;52.630;4.734;2022-10-17T09:57:08;4.90;;;2.43;;
16667;SDS011;8447;52.630;4.734;2022-10-17T09:59:35;11.67;;;2.67;;
16667;SDS011;8447;52.630;4.734;2022-10-17T10:02:11;10.50;;;2.73;;
16667;SDS011;8447;52.630;4.734;2022-10-17T10:04:45;4.40;;;2.27;;
16667;SDS011;8447;52.630;4.734;2022-10-17T10:07:16;6.43;;;2.67;;
16667;SDS011;8447;52.630;4.734;2022-10-17T10:09:46;5.53;;;2.80;;
16667;SDS011;8447;52.630;4.734;2022-10-17T10:12:15;8.47;;;3.27;;
16667;SDS011;8447;52.630;4.734;2022-10-17T10:14:42;8.87;;;2.40;;
16667;SDS011;8447;52.630;4.734;2022-10-17T10:17:23;5.93;;;2.30;;
16667;SDS011;8447;52.630;4.734;2022-10-17T10:19:51;7.87;;;2.87;;
16667;SDS011;8447;52.630;4.734;2022-10-17T10:22:18;7.47;;;2.77;;
16667;SDS011;8447;52.630;4.734;2022-10-17T10:24:46;5.63;;;2.13;;
16667;SDS011;8447;52.630;4.734;2022-10-17T10:27:31;8.67;;;2.40;;
16667;SDS011;8447;52.630;4.734;2022-10-17T10:29:57;7.97;;;2.10;;
16667;SDS011;8447;52.630;4.734;2022-10-17T10:32:24;7.60;;;2.00;;
16667;SDS011;8447;52.630;4.734;2022-10-17T10:34:52;8.77;;;2.53;;
16667;SDS011;8447;52.630;4.734;2022-10-17T10:37:21;6.83;;;1.80;;
16667;SDS011;8447;52.630;4.734;2022-10-17T10:39:50;4.77;;;2.00;;
16667;SDS011;8447;52.630;4.734;2022-10-17T10:42:19;4.33;;;1.60;;
16667;SDS011;8447;52.630;4.734;2022-10-17T10:44:47;5.90;;;2.03;;
16667;SDS011;8447;52.630;4.734;2022-10-17T10:47:19;9.73;;;2.00;;
16667;SDS011;8447;52.630;4.734;2022-10-17T10:49:46;10.63;;;2.43;;
16667;SDS011;8447;52.630;4.734;2022-10-17T10:52:15;8.63;;;2.13;;
16667;SDS011;8447;52.630;4.734;2022-10-17T10:54:45;9.90;;;2.63;;
16667;SDS011;8447;52.630;4.734;2022-10-17T10:57:16;9.93;;;2.00;;
16667;SDS011;8447;52.630;4.734;2022-10-17T10:59:46;4.07;;;1.90;;
16667;SDS011;8447;52.630;4.734;2022-10-17T11:02:16;5.57;;;1.93;;
16667;SDS011;8447;52.630;4.734;2022-10-17T11:04:45;5.30;;;2.20;;
16667;SDS011;8447;52.630;4.734;2022-10-17T11:07:22;5.10;;;1.40;;
16667;SDS011;8447;52.630;4.734;2022-10-17T11:09:52;9.17;;;2.10;;
16667;SDS011;8447;52.630;4.734;2022-10-17T11:12:27;5.87;;;1.97;;
16667;SDS011;8447;52.630;4.734;2022-10-17T11:14:56;4.80;;;2.07;;
16667;SDS011;8447;52.630;4.734;2022-10-17T11:17:27;7.43;;;2.10;;
16667;SDS011;8447;52.630;4.734;2022-10-17T11:19:58;4.77;;;1.80;;
16667;SDS011;8447;52.630;4.734;2022-10-17T11:22:26;8.00;;;2.30;;
16667;SDS011;8447;52.630;4.734;2022-10-17T11:24:55;5.33;;;2.30;;
16667;SDS011;8447;52.630;4.734;2022-10-17T11:27:25;6.23;;;2.00;;
16667;SDS011;8447;52.630;4.734;2022-10-17T11:29:53;7.10;;;2.87;;
16667;SDS011;8447;52.630;4.734;2022-10-17T11:32:19;4.17;;;2.07;;
16667;SDS011;8447;52.630;4.734;2022-10-17T11:34:49;4.07;;;1.67;;
16667;SDS011;8447;52.630;4.734;2022-10-17T11:37:17;4.90;;;2.00;;
16667;SDS011;8447;52.630;4.734;2022-10-17T11:39:46;8.23;;;4.20;;
16667;SDS011;8447;52.630;4.734;2022-10-17T11:42:14;8.87;;;2.10;;
16667;SDS011;8447;52.630;4.734;2022-10-17T11:44:43;6.67;;;1.83;;
16667;SDS011;8447;52.630;4.734;2022-10-17T11:47:12;6.73;;;2.30;;
16667;SDS011;8447;52.630;4.734;2022-10-17T11:49:39;5.67;;;2.00;;
16667;SDS011;8447;52.630;4.734;2022-10-17T11:52:15;9.30;;;2.47;;
16667;SDS011;8447;52.630;4.734;2022-10-17T11:54:44;11.07;;;2.27;;
16667;SDS011;8447;52.630;4.734;2022-10-17T11:57:20;6.03;;;2.10;;
16667;SDS011;8447;52.630;4.734;2022-10-17T11:59:58;5.27;;;2.10;;
16667;SDS011;8447;52.630;4.734;2022-10-17T12:02:27;5.87;;;1.87;;
16667;SDS011;8447;52.630;4.734;2022-10-17T12:04:58;3.77;;;1.93;;
16667;SDS011;8447;52.630;4.734;2022-10-17T12:07:27;5.37;;;2.20;;
16667;SDS011;8447;52.630;4.734;2022-10-17T12:09:55;4.47;;;1.87;;
16667;SDS011;8447;52.630;4.734;2022-10-17T12:12:24;7.20;;;1.73;;
16667;SDS011;8447;52.630;4.734;2022-10-17T12:14:51;7.43;;;2.00;;
16667;SDS011;8447;52.630;4.734;2022-10-17T12:17:28;9.03;;;2.30;;
16667;SDS011;8447;52.630;4.734;2022-10-17T12:22:45;5.83;;;1.77;;
16667;SDS011;8447;52.630;4.734;2022-10-17T12:25:15;3.77;;;1.93;;
16667;SDS011;8447;52.630;4.734;2022-10-17T12:27:43;3.37;;;1.67;;
16667;SDS011;8447;52.630;4.734;2022-10-17T12:30:17;5.03;;;1.40;;
16667;SDS011;8447;52.630;4.734;2022-10-17T12:35:31;5.53;;;1.67;;
16667;SDS011;8447;52.630;4.734;2022-10-17T12:37:59;7.43;;;1.90;;
16667;SDS011;8447;52.630;4.734;2022-10-17T12:45:55;3.97;;;1.70;;
16667;SDS011;8447;52.630;4.734;2022-10-17T12:51:08;7.70;;;1.40;;
16667;SDS011;8447;52.630;4.734;2022-10-17T12:53:37;4.67;;;1.80;;
16667;SDS011;8447;52.630;4.734;2022-10-17T12:56:06;7.23;;;1.67;;
16667;SDS011;8447;52.630;4.734;2022-10-17T12:58:33;5.23;;;2.00;;
16667;SDS011;8447;52.630;4.734;2022-10-17T13:01:00;3.23;;;1.50;;
16667;SDS011;8447;52.630;4.734;2022-10-17T13:03:27;5.23;;;1.40;;
16667;SDS011;8447;52.630;4.734;2022-10-17T13:06:00;5.80;;;1.50;;
16667;SDS011;8447;52.630;4.734;2022-10-17T13:08:29;7.60;;;2.03;;
16667;SDS011;8447;52.630;4.734;2022-10-17T13:10:57;3.67;;;1.80;;
16667;SDS011;8447;52.630;4.734;2022-10-17T13:13:25;4.77;;;1.63;;
16667;SDS011;8447;52.630;4.734;2022-10-17T13:15:57;5.37;;;1.90;;
16667;SDS011;8447;52.630;4.734;2022-10-17T13:18:25;5.23;;;1.77;;
16667;SDS011;8447;52.630;4.734;2022-10-17T13:20:55;5.33;;;1.63;;
16667;SDS011;8447;52.630;4.734;2022-10-17T13:23:22;4.87;;;1.67;;
16667;SDS011;8447;52.630;4.734;2022-10-17T13:26:01;6.00;;;1.83;;
16667;SDS011;8447;52.630;4.734;2022-10-17T13:28:28;6.17;;;1.50;;
16667;SDS011;8447;52.630;4.734;2022-10-17T13:30:54;2.87;;;1.53;;
16667;SDS011;8447;52.630;4.734;2022-10-17T13:33:26;4.10;;;1.30;;
16667;SDS011;8447;52.630;4.734;2022-10-17T13:35:53;3.97;;;1.83;;
16667;SDS011;8447;52.630;4.734;2022-10-17T13:38:20;5.00;;;1.50;;
16667;SDS011;8447;52.630;4.734;2022-10-17T13:40:49;4.43;;;2.13;;
16667;SDS011;8447;52.630;4.734;2022-10-17T13:43:18;3.57;;;1.40;;
16667;SDS011;8447;52.630;4.734;2022-10-17T13:45:46;1.97;;;1.40;;
16667;SDS011;8447;52.630;4.734;2022-10-17T13:48:16;3.83;;;1.60;;
16667;SDS011;8447;52.630;4.734;2022-10-17T13:50:44;5.80;;;1.90;;
16667;SDS011;8447;52.630;4.734;2022-10-17T13:53:15;6.33;;;1.50;;
16667;SDS011;8447;52.630;4.734;2022-10-17T13:55:56;4.10;;;1.10;;
16667;SDS011;8447;52.630;4.734;2022-10-17T13:58:24;4.33;;;1.53;;
16667;SDS011;8447;52.630;4.734;2022-10-17T14:00:51;4.80;;;1.43;;
16667;SDS011;8447;52.630;4.734;2022-10-17T14:03:19;7.57;;;1.67;;
16667;SDS011;8447;52.630;4.734;2022-10-17T14:05:59;1.97;;;1.47;;
16667;SDS011;8447;52.630;4.734;2022-10-17T14:08:25;3.50;;;1.40;;
16667;SDS011;8447;52.630;4.734;2022-10-17T14:10:52;7.83;;;1.83;;
16667;SDS011;8447;52.630;4.734;2022-10-17T14:13:20;4.27;;;1.40;;
16667;SDS011;8447;52.630;4.734;2022-10-17T14:15:49;2.30;;;1.40;;
16667;SDS011;8447;52.630;4.734;2022-10-17T14:18:17;5.17;;;1.43;;
16667;SDS011;8447;52.630;4.734;2022-10-17T14:20:44;9.57;;;2.20;;
16667;SDS011;8447;52.630;4.734;2022-10-17T14:26:02;4.03;;;1.30;;
16667;SDS011;8447;52.630;4.734;2022-10-17T14:28:29;3.87;;;1.63;;
16667;SDS011;8447;52.630;4.734;2022-10-17T14:31:08;6.33;;;2.00;;
16667;SDS011;8447;52.630;4.734;2022-10-17T14:33:35;4.10;;;1.40;;
16667;SDS011;8447;52.630;4.734;2022-10-17T14:36:02;2.97;;;1.20;;
16667;SDS011;8447;52.630;4.734;2022-10-17T14:38:29;3.77;;;1.50;;
16667;SDS011;8447;52.630;4.734;2022-10-17T14:40:57;3.93;;;1.20;;
16667;SDS011;8447;52.630;4.734;2022-10-17T14:43:24;6.90;;;2.00;;
16667;SDS011;8447;52.630;4.734;2022-10-17T14:45:51;8.53;;;1.30;;
16667;SDS011;8447;52.630;4.734;2022-10-17T14:48:19;8.37;;;1.57;;
16667;SDS011;8447;52.630;4.734;2022-10-17T14:53:28;6.73;;;1.40;;
16667;SDS011;8447;52.630;4.734;2022-10-17T14:55:56;3.60;;;1.50;;
16667;SDS011;8447;52.630;4.734;2022-10-17T14:58:23;8.03;;;1.87;;
16667;SDS011;8447;52.630;4.734;2022-10-17T15:00:49;8.57;;;2.13;;
16667;SDS011;8447;52.630;4.734;2022-10-17T15:03:16;6.27;;;1.37;;
16667;SDS011;8447;52.630;4.734;2022-10-17T15:05:44;3.50;;;1.13;;
16667;SDS011;8447;52.630;4.734;2022-10-17T15:08:11;9.37;;;1.80;;
16667;SDS011;8447;52.630;4.734;2022-10-17T15:10:38;2.77;;;1.27;;
16667;SDS011;8447;52.630;4.734;2022-10-17T15:13:06;6.17;;;1.50;;
16667;SDS011;8447;52.630;4.734;2022-10-17T15:15:32;6.20;;;1.53;;
16667;SDS011;8447;52.630;4.734;2022-10-17T15:17:59;8.83;;;1.83;;
16667;SDS011;8447;52.630;4.734;2022-10-17T15:20:26;8.30;;;1.63;;
16667;SDS011;8447;52.630;4.734;2022-10-17T15:22:56;4.60;;;1.20;;
16667;SDS011;8447;52.630;4.734;2022-10-17T15:25:24;5.43;;;1.70;;
16667;SDS011;8447;52.630;4.734;2022-10-17T15:27:50;3.70;;;1.17;;
16667;SDS011;8447;52.630;4.734;2022-10-17T15:30:17;4.17;;;1.07;;
16667;SDS011;8447;52.630;4.734;2022-10-17T15:32:44;4.17;;;1.87;;